sensor_id;sensor_type;location;lat;lon;timestamp;temperature;humidity
34574;DHT22;20809;49.594;8.734;2023-02-12T00:02:57;4.30;99.90
34574;DHT22;20809;49.594;8.734;2023-02-12T00:06:00;4.30;99.90
34574;DHT22;20809;49.594;8.734;2023-02-12T00:09:01;4.20;99.90
34574;DHT22;20809;49.594;8.734;2023-02-12T00:12:02;4.30;99.90
34574;DHT22;20809;49.594;8.734;2023-02-12T00:15:03;4.30;99.90
34574;DHT22;20809;49.594;8.734;2023-02-12T00:18:04;4.30;99.90
34574;DHT22;20809;49.594;8.734;2023-02-12T00:21:06;4.40;99.90
34574;DHT22;20809;49.594;8.734;2023-02-12T00:24:09;4.40;99.90
34574;DHT22;20809;49.594;8.734;2023-02-12T00:27:10;4.50;99.90
34574;DHT22;20809;49.594;8.734;2023-02-12T00:30:11;4.50;99.90
34574;DHT22;20809;49.594;8.734;2023-02-12T00:33:12;4.50;99.90
34574;DHT22;20809;49.594;8.734;2023-02-12T00:36:16;4.50;99.90
34574;DHT22;20809;49.594;8.734;2023-02-12T00:39:17;4.40;99.90
34574;DHT22;20809;49.594;8.734;2023-02-12T00:42:18;4.40;99.90
34574;DHT22;20809;49.594;8.734;2023-02-12T00:45:19;4.40;99.90
34574;DHT22;20809;49.594;8.734;2023-02-12T00:48:20;4.40;99.90
34574;DHT22;20809;49.594;8.734;2023-02-12T00:51:21;4.40;99.90
34574;DHT22;20809;49.594;8.734;2023-02-12T00:54:22;4.40;99.90
34574;DHT22;20809;49.594;8.734;2023-02-12T00:57:22;4.40;99.90
34574;DHT22;20809;49.594;8.734;2023-02-12T01:00:24;4.50;99.90
34574;DHT22;20809;49.594;8.734;2023-02-12T01:03:24;4.50;99.90
34574;DHT22;20809;49.594;8.734;2023-02-12T01:06:26;4.50;99.90
34574;DHT22;20809;49.594;8.734;2023-02-12T01:09:26;4.50;99.90
34574;DHT22;20809;49.594;8.734;2023-02-12T01:12:27;4.50;99.90
34574;DHT22;20809;49.594;8.734;2023-02-12T01:15:28;4.50;99.90
34574;DHT22;20809;49.594;8.734;2023-02-12T01:18:29;4.50;99.90
34574;DHT22;20809;49.594;8.734;2023-02-12T01:21:33;4.50;99.90
34574;DHT22;20809;49.594;8.734;2023-02-12T01:24:34;4.50;99.90
34574;DHT22;20809;49.594;8.734;2023-02-12T01:27:35;4.40;99.90
34574;DHT22;20809;49.594;8.734;2023-02-12T01:30:36;4.40;99.90
34574;DHT22;20809;49.594;8.734;2023-02-12T01:33:36;4.50;99.90
34574;DHT22;20809;49.594;8.734;2023-02-12T01:36:38;4.50;99.90
34574;DHT22;20809;49.594;8.734;2023-02-12T01:39:38;4.50;99.90
34574;DHT22;20809;49.594;8.734;2023-02-12T01:42:39;4.50;99.90
34574;DHT22;20809;49.594;8.734;2023-02-12T01:48:42;4.50;99.90
34574;DHT22;20809;49.594;8.734;2023-02-12T01:51:46;4.50;99.90
34574;DHT22;20809;49.594;8.734;2023-02-12T01:54:49;4.50;99.90
34574;DHT22;20809;49.594;8.734;2023-02-12T01:59:24;4.50;99.90
34574;DHT22;20809;49.594;8.734;2023-02-12T02:02:29;4.40;99.90
34574;DHT22;20809;49.594;8.734;2023-02-12T02:08:48;4.50;99.90
34574;DHT22;20809;49.594;8.734;2023-02-12T02:11:52;4.50;99.90
34574;DHT22;20809;49.594;8.734;2023-02-12T02:15:16;4.50;99.90
34574;DHT22;20809;49.594;8.734;2023-02-12T02:18:47;4.50;99.90
34574;DHT22;20809;49.594;8.734;2023-02-12T02:32:45;4.40;99.90
34574;DHT22;20809;49.594;8.734;2023-02-12T02:36:05;4.50;99.90
34574;DHT22;20809;49.594;8.734;2023-02-12T02:39:35;4.50;99.90
34574;DHT22;20809;49.594;8.734;2023-02-12T02:42:55;4.50;99.90
34574;DHT22;20809;49.594;8.734;2023-02-12T02:46:12;4.40;99.90
34574;DHT22;20809;49.594;8.734;2023-02-12T02:49:26;4.40;99.90
34574;DHT22;20809;49.594;8.734;2023-02-12T02:52:37;4.50;99.90
34574;DHT22;20809;49.594;8.734;2023-02-12T02:55:47;4.50;99.90
34574;DHT22;20809;49.594;8.734;2023-02-12T02:59:00;4.50;99.90
34574;DHT22;20809;49.594;8.734;2023-02-12T03:02:14;4.50;99.90
34574;DHT22;20809;49.594;8.734;2023-02-12T03:05:39;4.50;99.90
34574;DHT22;20809;49.594;8.734;2023-02-12T03:08:54;4.50;99.90
34574;DHT22;20809;49.594;8.734;2023-02-12T03:12:04;4.60;99.90
34574;DHT22;20809;49.594;8.734;2023-02-12T03:15:35;4.60;99.90
34574;DHT22;20809;49.594;8.734;2023-02-12T03:18:58;4.60;99.90
34574;DHT22;20809;49.594;8.734;2023-02-12T03:22:14;4.50;99.90
34574;DHT22;20809;49.594;8.734;2023-02-12T03:25:54;4.50;99.90
34574;DHT22;20809;49.594;8.734;2023-02-12T03:29:01;4.30;99.90
34574;DHT22;20809;49.594;8.734;2023-02-12T03:35:44;4.30;99.90
34574;DHT22;20809;49.594;8.734;2023-02-12T03:38:53;4.40;99.90
34574;DHT22;20809;49.594;8.734;2023-02-12T03:42:18;4.40;99.90
34574;DHT22;20809;49.594;8.734;2023-02-12T03:46:07;4.50;99.90
34574;DHT22;20809;49.594;8.734;2023-02-12T03:49:29;4.50;99.90
34574;DHT22;20809;49.594;8.734;2023-02-12T03:52:34;4.30;99.90
34574;DHT22;20809;49.594;8.734;2023-02-12T03:55:40;4.30;99.90
34574;DHT22;20809;49.594;8.734;2023-02-12T03:58:45;4.30;99.90
34574;DHT22;20809;49.594;8.734;2023-02-12T04:01:49;4.30;99.90
34574;DHT22;20809;49.594;8.734;2023-02-12T04:04:54;4.20;99.90
34574;DHT22;20809;49.594;8.734;2023-02-12T04:08:03;4.20;99.90
34574;DHT22;20809;49.594;8.734;2023-02-12T04:32:25;4.30;99.90
34574;DHT22;20809;49.594;8.734;2023-02-12T04:38:16;4.40;99.90
34574;DHT22;20809;49.594;8.734;2023-02-12T04:41:22;4.40;99.90
34574;DHT22;20809;49.594;8.734;2023-02-12T04:44:31;4.40;99.90
34574;DHT22;20809;49.594;8.734;2023-02-12T04:47:35;4.40;99.90
34574;DHT22;20809;49.594;8.734;2023-02-12T04:50:45;4.40;99.90
34574;DHT22;20809;49.594;8.734;2023-02-12T04:53:49;4.40;99.90
34574;DHT22;20809;49.594;8.734;2023-02-12T04:56:56;4.30;99.90
34574;DHT22;20809;49.594;8.734;2023-02-12T04:59:59;4.20;99.90
34574;DHT22;20809;49.594;8.734;2023-02-12T05:03:06;4.20;99.90
34574;DHT22;20809;49.594;8.734;2023-02-12T05:06:11;4.10;99.90
34574;DHT22;20809;49.594;8.734;2023-02-12T05:09:17;4.10;99.90
34574;DHT22;20809;49.594;8.734;2023-02-12T05:12:23;4.20;99.90
34574;DHT22;20809;49.594;8.734;2023-02-12T05:15:26;4.10;99.90
34574;DHT22;20809;49.594;8.734;2023-02-12T05:18:28;4.10;99.90
34574;DHT22;20809;49.594;8.734;2023-02-12T05:21:31;4.00;99.90
34574;DHT22;20809;49.594;8.734;2023-02-12T05:24:35;4.00;99.90
34574;DHT22;20809;49.594;8.734;2023-02-12T05:27:40;3.90;99.90
34574;DHT22;20809;49.594;8.734;2023-02-12T05:30:43;3.90;99.90
34574;DHT22;20809;49.594;8.734;2023-02-12T05:33:49;3.90;99.90
34574;DHT22;20809;49.594;8.734;2023-02-12T05:36:53;3.90;99.90
34574;DHT22;20809;49.594;8.734;2023-02-12T05:39:57;4.00;99.90
34574;DHT22;20809;49.594;8.734;2023-02-12T05:43:00;3.90;99.90
34574;DHT22;20809;49.594;8.734;2023-02-12T05:46:06;3.80;99.90
34574;DHT22;20809;49.594;8.734;2023-02-12T05:49:10;3.90;99.90
34574;DHT22;20809;49.594;8.734;2023-02-12T05:52:13;3.90;99.90
34574;DHT22;20809;49.594;8.734;2023-02-12T05:55:17;3.90;99.90
34574;DHT22;20809;49.594;8.734;2023-02-12T05:58:21;4.00;99.90
34574;DHT22;20809;49.594;8.734;2023-02-12T06:01:32;3.90;99.90
34574;DHT22;20809;49.594;8.734;2023-02-12T06:04:37;4.00;99.90
34574;DHT22;20809;49.594;8.734;2023-02-12T06:07:48;4.00;99.90
34574;DHT22;20809;49.594;8.734;2023-02-12T06:10:59;4.00;99.90
34574;DHT22;20809;49.594;8.734;2023-02-12T06:14:10;4.00;99.90
34574;DHT22;20809;49.594;8.734;2023-02-12T06:17:15;4.10;99.90
34574;DHT22;20809;49.594;8.734;2023-02-12T06:20:21;4.10;99.90
34574;DHT22;20809;49.594;8.734;2023-02-12T06:23:25;4.20;99.90
34574;DHT22;20809;49.594;8.734;2023-02-12T06:26:32;4.30;99.90
34574;DHT22;20809;49.594;8.734;2023-02-12T06:29:44;4.30;99.90
34574;DHT22;20809;49.594;8.734;2023-02-12T06:32:53;4.40;99.90
34574;DHT22;20809;49.594;8.734;2023-02-12T06:36:04;4.50;99.90
34574;DHT22;20809;49.594;8.734;2023-02-12T06:39:12;4.40;99.90
34574;DHT22;20809;49.594;8.734;2023-02-12T06:42:16;4.40;99.90
34574;DHT22;20809;49.594;8.734;2023-02-12T06:45:28;4.40;99.90
34574;DHT22;20809;49.594;8.734;2023-02-12T06:48:33;4.40;99.90
34574;DHT22;20809;49.594;8.734;2023-02-12T06:51:39;4.40;99.90
34574;DHT22;20809;49.594;8.734;2023-02-12T06:54:45;4.40;99.90
34574;DHT22;20809;49.594;8.734;2023-02-12T06:57:55;4.40;99.90
34574;DHT22;20809;49.594;8.734;2023-02-12T07:01:21;4.40;99.90
34574;DHT22;20809;49.594;8.734;2023-02-12T07:04:29;4.40;99.90
34574;DHT22;20809;49.594;8.734;2023-02-12T07:07:34;4.40;99.90
34574;DHT22;20809;49.594;8.734;2023-02-12T07:10:38;4.50;99.90
34574;DHT22;20809;49.594;8.734;2023-02-12T07:13:43;4.50;99.90
34574;DHT22;20809;49.594;8.734;2023-02-12T07:16:50;4.30;99.90
34574;DHT22;20809;49.594;8.734;2023-02-12T07:20:01;4.50;99.90
34574;DHT22;20809;49.594;8.734;2023-02-12T07:23:11;4.60;99.90
34574;DHT22;20809;49.594;8.734;2023-02-12T07:26:19;4.70;99.90
34574;DHT22;20809;49.594;8.734;2023-02-12T07:29:24;4.70;99.90
34574;DHT22;20809;49.594;8.734;2023-02-12T07:32:33;4.90;99.90
34574;DHT22;20809;49.594;8.734;2023-02-12T07:35:37;5.00;99.90
34574;DHT22;20809;49.594;8.734;2023-02-12T07:38:49;5.10;99.90
34574;DHT22;20809;49.594;8.734;2023-02-12T07:42:02;5.20;99.90
34574;DHT22;20809;49.594;8.734;2023-02-12T07:45:05;5.30;99.90
34574;DHT22;20809;49.594;8.734;2023-02-12T07:48:09;5.20;99.90
34574;DHT22;20809;49.594;8.734;2023-02-12T07:51:21;5.20;99.90
34574;DHT22;20809;49.594;8.734;2023-02-12T07:54:34;5.30;99.90
34574;DHT22;20809;49.594;8.734;2023-02-12T07:57:39;5.30;99.90
34574;DHT22;20809;49.594;8.734;2023-02-12T08:00:44;5.40;99.90
34574;DHT22;20809;49.594;8.734;2023-02-12T08:03:49;5.50;99.90
34574;DHT22;20809;49.594;8.734;2023-02-12T08:06:54;5.50;99.90
34574;DHT22;20809;49.594;8.734;2023-02-12T08:09:58;5.60;99.90
34574;DHT22;20809;49.594;8.734;2023-02-12T08:13:04;5.70;99.90
34574;DHT22;20809;49.594;8.734;2023-02-12T08:16:15;5.70;99.90
34574;DHT22;20809;49.594;8.734;2023-02-12T08:19:18;5.90;99.90
34574;DHT22;20809;49.594;8.734;2023-02-12T08:22:24;6.00;99.90
34574;DHT22;20809;49.594;8.734;2023-02-12T08:25:31;6.20;99.90
34574;DHT22;20809;49.594;8.734;2023-02-12T08:28:39;6.30;99.90
34574;DHT22;20809;49.594;8.734;2023-02-12T08:31:46;6.40;99.90
34574;DHT22;20809;49.594;8.734;2023-02-12T08:34:51;6.40;99.90
34574;DHT22;20809;49.594;8.734;2023-02-12T08:37:54;6.50;99.90
34574;DHT22;20809;49.594;8.734;2023-02-12T08:41:06;6.70;99.90
34574;DHT22;20809;49.594;8.734;2023-02-12T08:44:12;6.80;99.90
34574;DHT22;20809;49.594;8.734;2023-02-12T08:47:20;6.80;99.90
34574;DHT22;20809;49.594;8.734;2023-02-12T08:50:24;6.90;99.90
34574;DHT22;20809;49.594;8.734;2023-02-12T08:53:27;6.90;99.90
34574;DHT22;20809;49.594;8.734;2023-02-12T08:56:31;6.90;99.90
34574;DHT22;20809;49.594;8.734;2023-02-12T08:59:38;6.90;99.90
34574;DHT22;20809;49.594;8.734;2023-02-12T09:02:41;7.00;99.90
34574;DHT22;20809;49.594;8.734;2023-02-12T09:05:45;7.00;99.90
34574;DHT22;20809;49.594;8.734;2023-02-12T09:08:51;7.10;99.90
34574;DHT22;20809;49.594;8.734;2023-02-12T09:11:58;7.00;99.90
34574;DHT22;20809;49.594;8.734;2023-02-12T09:15:05;7.10;99.90
34574;DHT22;20809;49.594;8.734;2023-02-12T09:18:11;7.20;99.90
34574;DHT22;20809;49.594;8.734;2023-02-12T09:21:18;7.40;99.90
34574;DHT22;20809;49.594;8.734;2023-02-12T09:24:25;7.40;99.90
34574;DHT22;20809;49.594;8.734;2023-02-12T09:27:31;7.40;99.90
34574;DHT22;20809;49.594;8.734;2023-02-12T09:30:37;7.60;99.90
34574;DHT22;20809;49.594;8.734;2023-02-12T09:33:42;7.60;99.90
34574;DHT22;20809;49.594;8.734;2023-02-12T09:36:45;7.60;99.90
34574;DHT22;20809;49.594;8.734;2023-02-12T09:39:48;7.60;99.90
34574;DHT22;20809;49.594;8.734;2023-02-12T09:43:06;7.70;99.90
34574;DHT22;20809;49.594;8.734;2023-02-12T09:53:15;8.30;99.90
34574;DHT22;20809;49.594;8.734;2023-02-12T09:56:23;8.40;99.90
34574;DHT22;20809;49.594;8.734;2023-02-12T09:59:29;8.50;99.90
34574;DHT22;20809;49.594;8.734;2023-02-12T10:02:40;8.60;99.90
34574;DHT22;20809;49.594;8.734;2023-02-12T10:05:50;8.60;99.90
34574;DHT22;20809;49.594;8.734;2023-02-12T10:16:08;8.70;99.90
34574;DHT22;20809;49.594;8.734;2023-02-12T10:29:26;9.50;99.90
34574;DHT22;20809;49.594;8.734;2023-02-12T10:32:36;9.30;99.90
34574;DHT22;20809;49.594;8.734;2023-02-12T10:35:50;9.50;99.90
34574;DHT22;20809;49.594;8.734;2023-02-12T10:39:02;9.80;99.90
34574;DHT22;20809;49.594;8.734;2023-02-12T10:42:25;10.00;99.90
34574;DHT22;20809;49.594;8.734;2023-02-12T10:45:37;10.10;99.90
34574;DHT22;20809;49.594;8.734;2023-02-12T10:48:50;10.20;99.90
34574;DHT22;20809;49.594;8.734;2023-02-12T10:52:17;10.10;99.90
34574;DHT22;20809;49.594;8.734;2023-02-12T10:55:34;10.20;99.90
34574;DHT22;20809;49.594;8.734;2023-02-12T10:58:58;10.40;99.90
34574;DHT22;20809;49.594;8.734;2023-02-12T11:02:30;10.40;99.90
34574;DHT22;20809;49.594;8.734;2023-02-12T11:05:37;10.60;99.90
34574;DHT22;20809;49.594;8.734;2023-02-12T11:08:46;10.50;99.90
34574;DHT22;20809;49.594;8.734;2023-02-12T11:11:53;10.30;99.90
34574;DHT22;20809;49.594;8.734;2023-02-12T11:15:03;10.40;99.90
34574;DHT22;20809;49.594;8.734;2023-02-12T11:18:21;10.60;99.90
34574;DHT22;20809;49.594;8.734;2023-02-12T11:21:30;10.70;99.90
34574;DHT22;20809;49.594;8.734;2023-02-12T11:24:39;10.80;99.90
34574;DHT22;20809;49.594;8.734;2023-02-12T11:28:03;10.90;99.90
34574;DHT22;20809;49.594;8.734;2023-02-12T11:34:33;11.00;99.90
34574;DHT22;20809;49.594;8.734;2023-02-12T11:37:42;11.10;99.90
34574;DHT22;20809;49.594;8.734;2023-02-12T11:40:48;11.20;99.90
34574;DHT22;20809;49.594;8.734;2023-02-12T11:43:57;11.40;99.90
34574;DHT22;20809;49.594;8.734;2023-02-12T11:47:30;11.50;99.90
34574;DHT22;20809;49.594;8.734;2023-02-12T11:50:35;11.60;99.90
34574;DHT22;20809;49.594;8.734;2023-02-12T11:53:48;11.80;99.90
34574;DHT22;20809;49.594;8.734;2023-02-12T11:56:54;11.80;99.90
34574;DHT22;20809;49.594;8.734;2023-02-12T12:00:03;11.90;99.90
34574;DHT22;20809;49.594;8.734;2023-02-12T12:03:24;11.90;99.90
34574;DHT22;20809;49.594;8.734;2023-02-12T12:06:45;12.10;99.90
34574;DHT22;20809;49.594;8.734;2023-02-12T12:09:57;12.30;99.90
34574;DHT22;20809;49.594;8.734;2023-02-12T12:13:05;12.10;99.90
34574;DHT22;20809;49.594;8.734;2023-02-12T12:17:19;11.60;99.90
34574;DHT22;20809;49.594;8.734;2023-02-12T12:20:20;11.60;99.90
34574;DHT22;20809;49.594;8.734;2023-02-12T12:23:36;11.30;99.90
34574;DHT22;20809;49.594;8.734;2023-02-12T12:26:52;11.30;99.90
34574;DHT22;20809;49.594;8.734;2023-02-12T12:30:06;11.40;99.90
34574;DHT22;20809;49.594;8.734;2023-02-12T12:33:49;11.40;99.90
34574;DHT22;20809;49.594;8.734;2023-02-12T12:37:14;11.30;99.90
34574;DHT22;20809;49.594;8.734;2023-02-12T12:41:12;10.70;99.90
34574;DHT22;20809;49.594;8.734;2023-02-12T12:44:08;10.70;99.90
34574;DHT22;20809;49.594;8.734;2023-02-12T12:50:51;10.90;99.90
34574;DHT22;20809;49.594;8.734;2023-02-12T13:07:37;11.40;99.90
34574;DHT22;20809;49.594;8.734;2023-02-12T13:10:59;11.50;99.90
34574;DHT22;20809;49.594;8.734;2023-02-12T13:14:47;11.60;99.90
34574;DHT22;20809;49.594;8.734;2023-02-12T13:21:33;11.70;99.90
34574;DHT22;20809;49.594;8.734;2023-02-12T13:24:46;11.80;99.90
34574;DHT22;20809;49.594;8.734;2023-02-12T13:27:58;11.80;99.90
34574;DHT22;20809;49.594;8.734;2023-02-12T13:31:07;11.80;99.90
34574;DHT22;20809;49.594;8.734;2023-02-12T13:34:17;11.70;99.90
34574;DHT22;20809;49.594;8.734;2023-02-12T13:37:42;11.60;99.90
34574;DHT22;20809;49.594;8.734;2023-02-12T13:40:57;11.60;99.90
34574;DHT22;20809;49.594;8.734;2023-02-12T13:44:25;11.60;99.90
34574;DHT22;20809;49.594;8.734;2023-02-12T13:51:27;11.60;99.90
34574;DHT22;20809;49.594;8.734;2023-02-12T14:01:46;11.70;99.90
34574;DHT22;20809;49.594;8.734;2023-02-12T14:08:03;11.60;99.90
34574;DHT22;20809;49.594;8.734;2023-02-12T14:11:16;11.70;99.90
34574;DHT22;20809;49.594;8.734;2023-02-12T14:14:36;11.80;99.90
34574;DHT22;20809;49.594;8.734;2023-02-12T14:18:35;11.80;99.90
34574;DHT22;20809;49.594;8.734;2023-02-12T14:27:51;11.80;99.90
34574;DHT22;20809;49.594;8.734;2023-02-12T14:37:39;11.80;99.90
34574;DHT22;20809;49.594;8.734;2023-02-12T14:40:49;11.80;99.90
34574;DHT22;20809;49.594;8.734;2023-02-12T14:50:46;11.90;99.90
34574;DHT22;20809;49.594;8.734;2023-02-12T14:53:50;12.00;99.90
34574;DHT22;20809;49.594;8.734;2023-02-12T14:57:06;11.90;99.90
34574;DHT22;20809;49.594;8.734;2023-02-12T15:00:34;11.90;99.90
34574;DHT22;20809;49.594;8.734;2023-02-12T15:03:51;11.90;99.90
34574;DHT22;20809;49.594;8.734;2023-02-12T15:07:08;11.70;99.90
34574;DHT22;20809;49.594;8.734;2023-02-12T15:10:23;11.70;99.90
34574;DHT22;20809;49.594;8.734;2023-02-12T15:14:12;11.90;99.90
34574;DHT22;20809;49.594;8.734;2023-02-12T15:17:21;11.90;99.90
34574;DHT22;20809;49.594;8.734;2023-02-12T15:20:38;11.90;99.90
34574;DHT22;20809;49.594;8.734;2023-02-12T15:23:56;11.90;99.90
34574;DHT22;20809;49.594;8.734;2023-02-12T15:27:01;11.80;99.90
34574;DHT22;20809;49.594;8.734;2023-02-12T15:30:13;11.80;99.90
34574;DHT22;20809;49.594;8.734;2023-02-12T15:33:32;11.80;99.90
34574;DHT22;20809;49.594;8.734;2023-02-12T15:36:39;11.70;99.90
34574;DHT22;20809;49.594;8.734;2023-02-12T15:39:47;11.60;99.90
34574;DHT22;20809;49.594;8.734;2023-02-12T15:42:55;11.60;99.90
34574;DHT22;20809;49.594;8.734;2023-02-12T15:46:02;11.60;99.90
34574;DHT22;20809;49.594;8.734;2023-02-12T15:49:20;11.60;99.90
34574;DHT22;20809;49.594;8.734;2023-02-12T15:52:34;11.50;99.90
34574;DHT22;20809;49.594;8.734;2023-02-12T15:55:44;11.50;99.90
34574;DHT22;20809;49.594;8.734;2023-02-12T15:58:57;11.40;99.90
34574;DHT22;20809;49.594;8.734;2023-02-12T16:02:13;11.20;99.90
34574;DHT22;20809;49.594;8.734;2023-02-12T16:05:17;11.00;99.90
34574;DHT22;20809;49.594;8.734;2023-02-12T16:08:26;10.80;99.90
34574;DHT22;20809;49.594;8.734;2023-02-12T16:11:31;10.50;99.90
34574;DHT22;20809;49.594;8.734;2023-02-12T16:14:55;10.30;99.90
34574;DHT22;20809;49.594;8.734;2023-02-12T16:18:05;10.20;99.90
34574;DHT22;20809;49.594;8.734;2023-02-12T16:21:23;10.20;99.90
34574;DHT22;20809;49.594;8.734;2023-02-12T16:24:37;10.00;99.90
34574;DHT22;20809;49.594;8.734;2023-02-12T16:27:40;9.80;99.90
34574;DHT22;20809;49.594;8.734;2023-02-12T16:30:56;9.50;99.90
34574;DHT22;20809;49.594;8.734;2023-02-12T16:34:28;9.30;99.90
34574;DHT22;20809;49.594;8.734;2023-02-12T16:37:45;9.30;99.90
34574;DHT22;20809;49.594;8.734;2023-02-12T16:41:14;9.10;99.90
34574;DHT22;20809;49.594;8.734;2023-02-12T16:44:20;8.90;99.90
34574;DHT22;20809;49.594;8.734;2023-02-12T16:47:33;8.70;99.90
34574;DHT22;20809;49.594;8.734;2023-02-12T16:50:54;8.40;99.90
34574;DHT22;20809;49.594;8.734;2023-02-12T16:54:03;8.10;99.90
34574;DHT22;20809;49.594;8.734;2023-02-12T16:57:12;7.90;99.90
34574;DHT22;20809;49.594;8.734;2023-02-12T17:00:17;7.70;99.90
34574;DHT22;20809;49.594;8.734;2023-02-12T17:03:22;7.50;99.90
34574;DHT22;20809;49.594;8.734;2023-02-12T17:06:32;7.40;99.90
34574;DHT22;20809;49.594;8.734;2023-02-12T17:09:37;7.30;99.90
34574;DHT22;20809;49.594;8.734;2023-02-12T17:12:49;7.30;99.90
34574;DHT22;20809;49.594;8.734;2023-02-12T17:15:59;7.30;99.90
34574;DHT22;20809;49.594;8.734;2023-02-12T17:19:05;7.20;99.90
34574;DHT22;20809;49.594;8.734;2023-02-12T17:22:36;7.10;99.90
34574;DHT22;20809;49.594;8.734;2023-02-12T17:25:40;7.00;99.90
34574;DHT22;20809;49.594;8.734;2023-02-12T17:28:43;6.90;99.90
34574;DHT22;20809;49.594;8.734;2023-02-12T17:31:47;6.90;99.90
34574;DHT22;20809;49.594;8.734;2023-02-12T17:34:50;6.90;99.90
34574;DHT22;20809;49.594;8.734;2023-02-12T17:37:55;6.80;99.90
34574;DHT22;20809;49.594;8.734;2023-02-12T17:40:58;6.80;99.90
34574;DHT22;20809;49.594;8.734;2023-02-12T17:44:01;6.80;99.90
34574;DHT22;20809;49.594;8.734;2023-02-12T17:47:03;6.90;99.90
34574;DHT22;20809;49.594;8.734;2023-02-12T17:50:09;6.80;99.90
34574;DHT22;20809;49.594;8.734;2023-02-12T17:53:13;6.80;99.90
34574;DHT22;20809;49.594;8.734;2023-02-12T17:56:18;6.80;99.90
34574;DHT22;20809;49.594;8.734;2023-02-12T17:59:20;6.70;99.90
34574;DHT22;20809;49.594;8.734;2023-02-12T18:02:23;6.60;99.90
34574;DHT22;20809;49.594;8.734;2023-02-12T18:05:25;6.60;99.90
34574;DHT22;20809;49.594;8.734;2023-02-12T18:08:29;6.60;99.90
34574;DHT22;20809;49.594;8.734;2023-02-12T18:11:31;6.60;99.90
34574;DHT22;20809;49.594;8.734;2023-02-12T18:14:35;6.60;99.90
34574;DHT22;20809;49.594;8.734;2023-02-12T18:17:41;6.60;99.90
34574;DHT22;20809;49.594;8.734;2023-02-12T18:20:46;6.50;99.90
34574;DHT22;20809;49.594;8.734;2023-02-12T18:23:51;6.50;99.90
34574;DHT22;20809;49.594;8.734;2023-02-12T18:26:56;6.60;99.90
34574;DHT22;20809;49.594;8.734;2023-02-12T18:30:03;6.50;99.90
34574;DHT22;20809;49.594;8.734;2023-02-12T18:33:05;6.60;99.90
34574;DHT22;20809;49.594;8.734;2023-02-12T18:36:14;6.70;99.90
34574;DHT22;20809;49.594;8.734;2023-02-12T18:39:19;6.80;99.90
34574;DHT22;20809;49.594;8.734;2023-02-12T18:42:22;6.70;99.90
34574;DHT22;20809;49.594;8.734;2023-02-12T18:45:30;6.60;99.90
34574;DHT22;20809;49.594;8.734;2023-02-12T18:48:32;6.60;99.90
34574;DHT22;20809;49.594;8.734;2023-02-12T18:51:36;6.60;99.90
34574;DHT22;20809;49.594;8.734;2023-02-12T18:54:41;6.60;99.90
34574;DHT22;20809;49.594;8.734;2023-02-12T18:57:44;6.50;99.90
34574;DHT22;20809;49.594;8.734;2023-02-12T19:00:48;6.40;99.90
34574;DHT22;20809;49.594;8.734;2023-02-12T19:03:54;6.30;99.90
34574;DHT22;20809;49.594;8.734;2023-02-12T19:06:59;6.20;99.90
34574;DHT22;20809;49.594;8.734;2023-02-12T19:10:01;6.10;99.90
34574;DHT22;20809;49.594;8.734;2023-02-12T19:13:09;6.00;99.90
34574;DHT22;20809;49.594;8.734;2023-02-12T19:16:14;5.90;99.90
34574;DHT22;20809;49.594;8.734;2023-02-12T19:19:21;5.80;99.90
34574;DHT22;20809;49.594;8.734;2023-02-12T19:22:28;5.60;99.90
34574;DHT22;20809;49.594;8.734;2023-02-12T19:25:33;5.40;99.90
34574;DHT22;20809;49.594;8.734;2023-02-12T19:28:42;5.30;99.90
34574;DHT22;20809;49.594;8.734;2023-02-12T19:31:45;5.20;99.90
34574;DHT22;20809;49.594;8.734;2023-02-12T19:34:46;5.30;99.90
34574;DHT22;20809;49.594;8.734;2023-02-12T19:37:47;5.50;99.90
34574;DHT22;20809;49.594;8.734;2023-02-12T19:41:02;5.60;99.90
34574;DHT22;20809;49.594;8.734;2023-02-12T19:44:08;5.60;99.90
34574;DHT22;20809;49.594;8.734;2023-02-12T19:47:11;5.60;99.90
34574;DHT22;20809;49.594;8.734;2023-02-12T19:50:15;5.60;99.90
34574;DHT22;20809;49.594;8.734;2023-02-12T19:53:23;5.70;99.90
34574;DHT22;20809;49.594;8.734;2023-02-12T19:56:26;5.60;99.90
34574;DHT22;20809;49.594;8.734;2023-02-12T19:59:30;5.60;99.90
34574;DHT22;20809;49.594;8.734;2023-02-12T20:02:36;5.60;99.90
34574;DHT22;20809;49.594;8.734;2023-02-12T20:05:43;5.60;99.90
34574;DHT22;20809;49.594;8.734;2023-02-12T20:08:51;5.60;99.90
34574;DHT22;20809;49.594;8.734;2023-02-12T20:11:53;5.60;99.90
34574;DHT22;20809;49.594;8.734;2023-02-12T20:14:55;5.50;99.90
34574;DHT22;20809;49.594;8.734;2023-02-12T20:17:58;5.40;99.90
34574;DHT22;20809;49.594;8.734;2023-02-12T20:21:06;5.40;99.90
34574;DHT22;20809;49.594;8.734;2023-02-12T20:24:11;5.40;99.90
34574;DHT22;20809;49.594;8.734;2023-02-12T20:27:18;5.30;99.90
34574;DHT22;20809;49.594;8.734;2023-02-12T20:30:22;5.20;99.90
34574;DHT22;20809;49.594;8.734;2023-02-12T20:33:24;4.90;99.90
34574;DHT22;20809;49.594;8.734;2023-02-12T20:36:31;4.70;99.90
34574;DHT22;20809;49.594;8.734;2023-02-12T20:39:33;4.60;99.90
34574;DHT22;20809;49.594;8.734;2023-02-12T20:42:35;4.50;99.90
34574;DHT22;20809;49.594;8.734;2023-02-12T20:45:38;4.30;99.90
34574;DHT22;20809;49.594;8.734;2023-02-12T20:48:42;4.10;99.90
34574;DHT22;20809;49.594;8.734;2023-02-12T20:51:48;4.00;99.90
34574;DHT22;20809;49.594;8.734;2023-02-12T20:54:50;3.90;99.90
34574;DHT22;20809;49.594;8.734;2023-02-12T20:57:52;3.90;99.90
34574;DHT22;20809;49.594;8.734;2023-02-12T21:00:54;3.90;99.90
34574;DHT22;20809;49.594;8.734;2023-02-12T21:03:55;3.80;99.90
34574;DHT22;20809;49.594;8.734;2023-02-12T21:06:57;3.70;99.90
34574;DHT22;20809;49.594;8.734;2023-02-12T21:09:59;3.70;99.90
34574;DHT22;20809;49.594;8.734;2023-02-12T21:13:01;3.80;99.90
34574;DHT22;20809;49.594;8.734;2023-02-12T21:16:10;3.80;99.90
34574;DHT22;20809;49.594;8.734;2023-02-12T21:19:15;3.90;99.90
34574;DHT22;20809;49.594;8.734;2023-02-12T21:22:19;3.80;99.90
34574;DHT22;20809;49.594;8.734;2023-02-12T21:25:21;3.80;99.90
34574;DHT22;20809;49.594;8.734;2023-02-12T21:28:24;3.80;99.90
34574;DHT22;20809;49.594;8.734;2023-02-12T21:31:32;3.80;99.90
34574;DHT22;20809;49.594;8.734;2023-02-12T21:34:35;3.90;99.90
34574;DHT22;20809;49.594;8.734;2023-02-12T21:37:37;3.80;99.90
34574;DHT22;20809;49.594;8.734;2023-02-12T21:40:38;3.70;99.90
34574;DHT22;20809;49.594;8.734;2023-02-12T21:43:40;3.70;99.90
34574;DHT22;20809;49.594;8.734;2023-02-12T21:46:42;3.80;99.90
34574;DHT22;20809;49.594;8.734;2023-02-12T21:49:44;3.80;99.90
34574;DHT22;20809;49.594;8.734;2023-02-12T21:52:46;3.90;99.90
34574;DHT22;20809;49.594;8.734;2023-02-12T21:55:48;3.80;99.90
34574;DHT22;20809;49.594;8.734;2023-02-12T21:58:50;3.70;99.90
34574;DHT22;20809;49.594;8.734;2023-02-12T22:01:52;3.70;99.90
34574;DHT22;20809;49.594;8.734;2023-02-12T22:04:55;3.80;99.90
34574;DHT22;20809;49.594;8.734;2023-02-12T22:07:56;3.90;99.90
34574;DHT22;20809;49.594;8.734;2023-02-12T22:11:03;3.90;99.90
34574;DHT22;20809;49.594;8.734;2023-02-12T22:14:07;4.00;99.90
34574;DHT22;20809;49.594;8.734;2023-02-12T22:17:11;4.10;99.90